createdAt,value
2023-05-13T00:02:54.578Z,6.50
2023-05-13T00:08:01.816Z,9.10
2023-05-13T00:13:04.859Z,8.60
2023-05-13T00:18:09.236Z,9.80
2023-05-13T00:23:12.459Z,5.57
2023-05-13T00:28:15.387Z,6.57
2023-05-13T00:33:19.678Z,8.97
2023-05-13T00:38:22.623Z,8.53
2023-05-13T00:43:25.480Z,8.33
2023-05-13T00:48:30.347Z,8.20
2023-05-13T00:53:34.075Z,9.70
2023-05-13T00:58:37.010Z,10.17
2023-05-13T01:03:50.467Z,8.30
2023-05-13T01:09:02.635Z,7.53
2023-05-13T01:14:12.558Z,7.90
2023-05-13T01:19:32.502Z,8.40
2023-05-13T01:24:36.927Z,9.03
2023-05-13T01:29:41.372Z,8.90
2023-05-13T01:34:45.092Z,8.87
2023-05-13T01:39:49.941Z,13.50
2023-05-13T01:44:54.068Z,15.30
2023-05-13T01:49:57.492Z,17.97
2023-05-13T01:55:01.909Z,16.67
2023-05-13T02:00:08.159Z,18.80
2023-05-13T02:05:31.721Z,15.70
2023-05-13T02:10:38.260Z,11.47
2023-05-13T02:15:41.676Z,13.63
2023-05-13T02:20:45.719Z,13.80
2023-05-13T02:25:50.046Z,11.63
2023-05-13T02:30:52.956Z,10.00
2023-05-13T02:35:55.888Z,13.10
2023-05-13T02:41:00.384Z,8.90
2023-05-13T02:46:04.107Z,9.07
2023-05-13T02:51:09.562Z,8.83
2023-05-13T02:56:16.297Z,9.20
2023-05-13T03:01:19.445Z,7.90
2023-05-13T03:06:22.405Z,7.80
2023-05-13T03:11:26.862Z,8.53
2023-05-13T03:16:29.770Z,8.10
2023-05-13T03:21:33.400Z,9.03
2023-05-13T03:26:37.821Z,7.40
2023-05-13T03:31:41.149Z,7.20
2023-05-13T03:36:44.203Z,5.90
2023-05-13T03:41:49.169Z,8.83
2023-05-13T03:46:52.575Z,10.77
2023-05-13T03:51:56.085Z,9.13
2023-05-13T03:57:00.531Z,8.00
2023-05-13T04:02:03.869Z,9.53
2023-05-13T04:07:06.944Z,8.80
2023-05-13T04:12:11.244Z,8.40
2023-05-13T04:17:15.452Z,7.83
2023-05-13T04:22:18.402Z,8.43
2023-05-13T04:27:22.647Z,9.40
2023-05-13T04:32:26.508Z,8.90
2023-05-13T04:37:31.321Z,6.97
2023-05-13T04:42:39.766Z,7.40
2023-05-13T04:47:42.966Z,9.70
2023-05-13T04:52:47.299Z,7.97
2023-05-13T04:57:53.828Z,7.70
2023-05-13T05:02:58.120Z,8.40
2023-05-13T05:08:02.434Z,8.70
2023-05-13T05:13:06.763Z,9.17
2023-05-13T05:18:10.026Z,7.70
2023-05-13T05:23:15.277Z,8.93
2023-05-13T05:28:19.827Z,7.63
2023-05-13T05:33:23.611Z,7.43
2023-05-13T05:38:27.570Z,7.77
2023-05-13T05:43:33.780Z,6.37
2023-05-13T05:48:36.979Z,6.80
2023-05-13T05:53:41.106Z,7.20
2023-05-13T05:58:47.448Z,6.77
2023-05-13T06:03:54.872Z,7.00
2023-05-13T06:08:58.376Z,7.10
2023-05-13T06:14:02.769Z,6.40
2023-05-13T06:19:05.737Z,7.53
2023-05-13T06:24:09.244Z,6.93
2023-05-13T06:29:13.526Z,8.00
2023-05-13T06:34:16.889Z,7.80
2023-05-13T06:39:20.744Z,6.27
2023-05-13T06:44:25.316Z,7.50
2023-05-13T06:49:31.734Z,6.30
2023-05-13T06:54:34.662Z,5.90
2023-05-13T06:59:38.965Z,6.70
2023-05-13T07:04:41.827Z,5.83
2023-05-13T07:09:44.735Z,4.77
2023-05-13T07:14:49.102Z,7.30
2023-05-13T07:19:52.066Z,6.23
2023-05-13T07:24:55.029Z,5.33
2023-05-13T07:29:59.343Z,6.00
2023-05-13T07:35:02.241Z,6.37
2023-05-13T07:40:06.523Z,6.10
2023-05-13T07:45:11.963Z,5.77
2023-05-13T07:50:14.868Z,5.20
2023-05-13T07:55:17.844Z,6.10
2023-05-13T08:00:22.324Z,5.50
2023-05-13T08:05:25.327Z,6.10
2023-05-13T08:10:28.310Z,5.53
2023-05-13T08:15:32.602Z,6.40
2023-05-13T08:20:35.894Z,4.67
2023-05-13T08:25:38.830Z,4.80
2023-05-13T08:30:44.350Z,8.07
2023-05-13T08:35:47.902Z,5.60
2023-05-13T08:40:50.743Z,6.47
2023-05-13T08:45:57.712Z,8.00
2023-05-13T08:51:02.282Z,5.10
2023-05-13T08:56:10.432Z,5.27
2023-05-13T09:01:16.774Z,8.17
2023-05-13T09:06:19.663Z,6.87
2023-05-13T09:11:23.241Z,5.40
2023-05-13T09:16:29.501Z,6.13
2023-05-13T09:21:35.466Z,6.60
2023-05-13T09:26:39.201Z,6.63
2023-05-13T09:31:43.726Z,8.73
2023-05-13T09:36:46.716Z,9.27
2023-05-13T09:41:49.712Z,6.93
2023-05-13T09:46:55.487Z,5.87
2023-05-13T09:51:58.438Z,7.57
2023-05-13T09:57:01.759Z,9.47
2023-05-13T10:02:07.957Z,5.27
2023-05-13T10:07:13.214Z,7.00
2023-05-13T10:12:16.478Z,5.20
2023-05-13T10:17:21.484Z,5.00
2023-05-13T10:22:29.372Z,4.90
2023-05-13T10:27:33.714Z,5.23
2023-05-13T10:32:40.347Z,6.60
2023-05-13T10:37:57.451Z,5.37
2023-05-13T10:43:12.089Z,6.70
2023-05-13T10:48:17.882Z,4.87
2023-05-13T10:53:23.647Z,5.30
2023-05-13T10:58:30.485Z,7.17
2023-05-13T11:03:35.100Z,5.00
2023-05-13T11:08:39.288Z,4.50
2023-05-13T11:13:42.190Z,4.90
2023-05-13T11:18:46.796Z,4.80
2023-05-13T11:23:54.433Z,4.40
2023-05-13T11:28:59.835Z,4.00
2023-05-13T11:34:12.602Z,4.17
2023-05-13T11:39:17.612Z,4.43
2023-05-13T11:44:22.111Z,5.73
2023-05-13T11:49:42.828Z,3.60
2023-05-13T11:54:49.176Z,5.87
2023-05-13T11:59:56.981Z,6.70
2023-05-13T12:05:04.580Z,3.23
2023-05-13T12:10:09.108Z,3.57
2023-05-13T12:15:14.401Z,4.20
2023-05-13T12:20:19.996Z,3.97
2023-05-13T12:25:43.532Z,3.60
2023-05-13T12:30:52.279Z,3.70
2023-05-13T12:36:16.581Z,3.40
2023-05-13T12:41:19.511Z,3.67
2023-05-13T12:46:22.510Z,3.80
2023-05-13T12:51:27.144Z,3.40
2023-05-13T12:56:30.007Z,3.43
2023-05-13T13:01:33.352Z,5.70
2023-05-13T13:06:37.760Z,3.93
2023-05-13T13:11:40.675Z,3.73
2023-05-13T13:16:44.476Z,3.50
2023-05-13T13:21:48.738Z,4.63
2023-05-13T13:26:53.774Z,4.33
2023-05-13T13:31:56.814Z,4.33
2023-05-13T13:37:01.197Z,5.33
2023-05-13T13:42:04.921Z,4.80
2023-05-13T13:47:08.005Z,4.00
2023-05-13T13:52:12.529Z,4.80
2023-05-13T13:57:16.686Z,4.77
2023-05-13T14:02:19.819Z,4.40
2023-05-13T14:07:24.159Z,5.27
2023-05-13T14:12:27.145Z,4.97
2023-05-13T14:17:30.243Z,6.37
2023-05-13T14:22:34.670Z,4.67
2023-05-13T14:27:37.800Z,5.10
2023-05-13T14:32:45.032Z,3.83
2023-05-13T14:37:49.643Z,4.17
2023-05-13T14:42:52.573Z,4.40
2023-05-13T14:47:56.025Z,6.20
2023-05-13T14:53:00.477Z,4.23
2023-05-13T14:58:03.681Z,5.70
2023-05-13T15:03:06.710Z,5.80
2023-05-13T15:08:11.114Z,3.93
2023-05-13T15:13:14.032Z,4.30
2023-05-13T15:18:16.954Z,6.10
2023-05-13T15:23:21.196Z,4.47
2023-05-13T15:28:24.207Z,5.47
2023-05-13T15:33:27.469Z,5.13
2023-05-13T15:38:31.824Z,5.77
2023-05-13T15:43:35.109Z,5.03
2023-05-13T15:48:38.158Z,5.60
2023-05-13T15:53:42.439Z,5.60
2023-05-13T15:58:45.737Z,6.10
2023-05-13T16:03:48.696Z,6.53
2023-05-13T16:08:56.213Z,5.20
2023-05-13T16:13:59.775Z,5.10
2023-05-13T16:19:04.080Z,6.80
2023-05-13T16:24:08.916Z,6.10
2023-05-13T16:29:11.837Z,5.83
2023-05-13T16:34:14.835Z,5.30
2023-05-13T16:39:19.076Z,5.67
2023-05-13T16:44:22.224Z,4.70
2023-05-13T16:49:25.551Z,6.97
2023-05-13T16:54:29.855Z,7.03
2023-05-13T16:59:33.085Z,6.20
2023-05-13T17:04:36.452Z,6.27
2023-05-13T17:09:40.854Z,6.33
2023-05-13T17:14:43.893Z,6.10
2023-05-13T17:19:46.884Z,7.50
2023-05-13T17:24:51.185Z,6.13
2023-05-13T17:29:54.130Z,10.10
2023-05-13T17:34:57.480Z,11.33
2023-05-13T17:40:02.668Z,16.10
2023-05-13T17:45:06.319Z,13.40
2023-05-13T17:50:10.110Z,11.70
2023-05-13T17:55:14.429Z,8.10
2023-05-13T18:00:17.793Z,10.10
2023-05-13T18:05:21.662Z,13.20
2023-05-13T18:10:27.329Z,9.60
2023-05-13T18:15:30.201Z,9.23
2023-05-13T18:20:34.301Z,9.70
2023-05-13T18:25:48.838Z,8.10
2023-05-13T18:30:58.329Z,8.47
2023-05-13T18:36:01.284Z,8.53
2023-05-13T18:41:06.065Z,8.07
2023-05-13T18:46:09.498Z,9.60
2023-05-13T18:51:12.448Z,8.33
2023-05-13T18:56:16.715Z,9.93
2023-05-13T19:01:19.736Z,9.30
2023-05-13T19:06:22.801Z,9.23
2023-05-13T19:11:27.197Z,9.40
2023-05-13T19:16:32.497Z,9.47
2023-05-13T19:21:35.466Z,10.83
2023-05-13T19:26:39.715Z,16.87
2023-05-13T19:31:42.670Z,10.80
2023-05-13T19:36:46.148Z,8.90
2023-05-13T19:41:50.470Z,15.53
2023-05-13T19:46:53.473Z,14.00
2023-05-13T19:51:57.432Z,13.40
2023-05-13T19:57:01.829Z,13.50
2023-05-13T20:02:05.169Z,10.93
2023-05-13T20:07:09.380Z,12.83
2023-05-13T20:12:13.825Z,9.57
2023-05-13T20:17:18.293Z,11.00
2023-05-13T20:22:21.538Z,12.27
2023-05-13T20:27:25.797Z,13.60
2023-05-13T20:32:28.741Z,9.57
2023-05-13T20:37:31.669Z,12.30
2023-05-13T20:42:36.053Z,12.90
2023-05-13T20:47:38.938Z,18.20
2023-05-13T20:52:41.862Z,16.53
2023-05-13T20:57:46.058Z,15.27
2023-05-13T21:02:50.371Z,12.77
2023-05-13T21:07:53.363Z,11.47
2023-05-13T21:12:57.697Z,13.60
2023-05-13T21:18:00.604Z,14.20
2023-05-13T21:23:03.497Z,17.70
2023-05-13T21:28:08.203Z,18.10
2023-05-13T21:33:12.612Z,25.33
2023-05-13T21:38:15.517Z,15.50
2023-05-13T21:43:19.844Z,16.40
2023-05-13T21:48:22.889Z,17.13
2023-05-13T21:53:25.915Z,19.30
2023-05-13T21:58:30.507Z,23.10
2023-05-13T22:03:33.448Z,16.10
2023-05-13T22:08:36.362Z,19.53
2023-05-13T22:13:40.623Z,27.00
2023-05-13T22:18:43.836Z,34.10
2023-05-13T22:23:46.854Z,19.60
2023-05-13T22:28:51.163Z,20.67
2023-05-13T22:33:54.161Z,24.97
2023-05-13T22:38:56.998Z,20.00
2023-05-13T22:44:01.212Z,36.80
2023-05-13T22:49:04.193Z,20.17
2023-05-13T22:54:07.305Z,20.37
2023-05-13T22:59:12.392Z,15.53
2023-05-13T23:04:15.553Z,17.00
2023-05-13T23:09:18.599Z,18.93
2023-05-13T23:14:27.736Z,13.07
2023-05-13T23:19:30.834Z,12.50
2023-05-13T23:24:33.742Z,12.77
2023-05-13T23:29:38.044Z,13.50
2023-05-13T23:34:41.048Z,14.87
2023-05-13T23:39:43.965Z,15.30
2023-05-13T23:44:48.225Z,15.87
2023-05-13T23:49:51.160Z,13.70
2023-05-13T23:54:54.082Z,15.00
2023-05-13T23:59:58.396Z,13.50
